Cookies

¿Aceptas nuestras cookies?

Aceptar
VAM | Vabird-VBD

Virtual Vabird! Aerolínea Virtual de habla hispana, desde 2011




 INFORMACIÓN METAR y TAF
METAR FOR LEAS
ADDS - METARS form results

(1258 UTC 24 October 2021)
Data provider http://aviationweather.gov/metar/data/
 
METAR text: LEAS 241230Z 31005KT 260V350 9999 SCT050 18/10 Q1022 NOSIG
Conditions at: LEAS (ASTURIAS/AVILES , ES) observed 1230 UTC 24 October 2021
Temperature: 18.0°C (64°F)
Dewpoint: 10.0°C (50°F) [RH = 59%]
Pressure (altimeter): 30.18 inches Hg (1022.0 mb)
Winds: from the NW (310 degrees) at 6 MPH (5 knots; 2.6 m/s)
Visibility: 6 or more miles (10+ km)
Ceiling: at least 12,000 feet AGL
Clouds: scattered clouds at 5000 feet AGL
Weather: no significant weather observed at this time

METAR text: LEAS 241200Z 31005KT 260V020 9999 SCT050 17/10 Q1022 NOSIG
Conditions at: LEAS (ASTURIAS/AVILES , ES) observed 1200 UTC 24 October 2021
Temperature: 17.0°C (63°F)
Dewpoint: 10.0°C (50°F) [RH = 63%]
Pressure (altimeter): 30.18 inches Hg (1022.0 mb)
Winds: from the NW (310 degrees) at 6 MPH (5 knots; 2.6 m/s)
Visibility: 6 or more miles (10+ km)
Ceiling: at least 12,000 feet AGL
Clouds: scattered clouds at 5000 feet AGL
Weather: no significant weather observed at this time

Forecast for: AMD
Text: TAF AMD LEAS 241040Z 2410/2509 26008KT 9999 FEW025 BKN040 TX19/2414Z TN10/2504Z
Forecast period: 1000 UTC 24 October 2021 to 0900 UTC 25 October 2021
Forecast type: FROM: standard forecast or significant change
Winds: from the W (260 degrees) at 9 MPH (8 knots; 4.1 m/s)
Visibility: 6 or more miles (10+ km)
Ceiling: 4000 feet AGL
Clouds: few clouds at 2500 feet AGL
broken clouds at 4000 feet AGL
Weather: no significant weather forecast for this period
Text: PROB30
Forecast period: 1200 to 1400 UTC 24 October 2021
Forecast type: TEMPORARY: The following changes expected for less than half the time period
Visibility: missing
Ceiling: unknown
Clouds: missing
Weather: RA  (moderate rain)
Text: TEMPO 2412/2414 RA
Forecast period: 1400 to 1900 UTC 24 October 2021
Forecast type: TEMPORARY: The following changes expected for less than half the time period
Visibility: 1.86 miles (2.99 km)
Ceiling: unknown
Clouds: missing
Weather: RA BR  (moderate rain, mist)
Text: PROB30
Forecast period: 0400 to 0900 UTC 25 October 2021
Forecast type: TEMPORARY: The following changes expected for less than half the time period
Winds: from the SSW (200 degrees) at 12 MPH (10 knots; 5.1 m/s)
Visibility: missing
Ceiling: unknown
Clouds: missing
Weather: no significant weather forecast for this period

 MAPA DE AEROPUERTO

 INFORMACIÓN DE PISTA